createdAt,value
2019-01-20T00:00:15.315Z,-4.60
2019-01-20T00:02:47.858Z,-4.70
2019-01-20T00:05:20.718Z,-4.70
2019-01-20T00:07:53.255Z,-4.70
2019-01-20T00:10:25.828Z,-5.00
2019-01-20T00:12:58.251Z,-4.70
2019-01-20T00:15:30.727Z,-4.70
2019-01-20T00:18:03.253Z,-4.70
2019-01-20T00:20:35.724Z,-4.70
2019-01-20T00:23:08.264Z,-4.70
2019-01-20T00:25:40.733Z,-4.70
2019-01-20T00:28:13.366Z,-4.70
2019-01-20T00:30:45.749Z,-4.70
2019-01-20T00:33:18.083Z,-4.70
2019-01-20T00:35:50.469Z,-4.70
2019-01-20T00:38:23.147Z,-4.80
2019-01-20T00:40:56.451Z,-4.90
2019-01-20T00:43:28.934Z,-4.90
2019-01-20T00:46:01.696Z,-5.00
2019-01-20T00:48:34.063Z,-5.00
2019-01-20T00:51:06.737Z,-5.00
2019-01-20T00:53:39.211Z,-4.90
2019-01-20T00:56:11.836Z,-4.90
2019-01-20T00:58:44.215Z,-4.80
2019-01-20T01:01:16.809Z,-4.80
2019-01-20T01:03:49.282Z,-4.80
2019-01-20T01:06:22.165Z,-4.70
2019-01-20T01:08:54.653Z,-4.70
2019-01-20T01:11:31.591Z,-4.70
2019-01-20T01:14:01.349Z,-4.70
2019-01-20T01:16:33.831Z,-4.70
2019-01-20T01:19:06.406Z,-4.80
2019-01-20T01:21:39.602Z,-4.80
2019-01-20T01:24:12.074Z,-4.90
2019-01-20T01:26:44.552Z,-4.90
2019-01-20T01:29:17.028Z,-4.90
2019-01-20T01:31:49.407Z,-4.90
2019-01-20T01:34:21.864Z,-4.90
2019-01-20T01:36:54.358Z,-4.90
2019-01-20T01:39:26.933Z,-4.90
2019-01-20T01:41:59.318Z,-4.90
2019-01-20T01:44:31.700Z,-4.90
2019-01-20T01:47:04.181Z,-4.90
2019-01-20T01:49:36.658Z,-4.90
2019-01-20T01:52:09.340Z,-4.90
2019-01-20T01:54:41.872Z,-4.90
2019-01-20T01:57:14.351Z,-4.80
2019-01-20T01:59:46.828Z,-4.90
2019-01-20T02:02:19.422Z,-5.00
2019-01-20T02:04:51.788Z,-5.10
2019-01-20T02:07:24.359Z,-5.10
2019-01-20T02:09:56.841Z,-5.20
2019-01-20T02:12:29.418Z,-5.20
2019-01-20T02:15:01.998Z,-5.20
2019-01-20T02:17:34.471Z,-5.20
2019-01-20T02:20:09.168Z,-5.20
2019-01-20T02:22:41.745Z,-5.10
2019-01-20T02:25:15.726Z,-5.10
2019-01-20T02:27:48.402Z,-5.00
2019-01-20T02:30:24.601Z,-5.00
2019-01-20T02:32:57.067Z,-4.90
2019-01-20T02:35:29.745Z,-4.90
2019-01-20T02:38:02.228Z,-4.90
2019-01-20T02:40:34.801Z,-5.00
2019-01-20T02:43:07.380Z,-5.10
2019-01-20T02:45:39.746Z,-5.10
2019-01-20T02:48:12.226Z,-5.20
2019-01-20T02:50:44.803Z,-5.20
2019-01-20T02:53:17.293Z,-5.30
2019-01-20T02:55:49.773Z,-5.40
2019-01-20T02:58:22.256Z,-5.40
2019-01-20T03:00:54.739Z,-5.50
2019-01-20T03:03:27.227Z,-5.50
2019-01-20T03:05:59.702Z,-5.60
2019-01-20T03:08:32.171Z,-5.60
2019-01-20T03:11:04.646Z,-5.70
2019-01-20T03:13:37.135Z,-5.70
2019-01-20T03:16:09.817Z,-5.70
2019-01-20T03:18:42.400Z,-5.70
2019-01-20T03:21:14.872Z,-5.80
2019-01-20T03:23:47.252Z,-5.80
2019-01-20T03:26:19.720Z,-5.80
2019-01-20T03:28:52.192Z,-5.80
2019-01-20T03:31:24.669Z,-5.80
2019-01-20T03:33:57.185Z,-5.80
2019-01-20T03:36:29.763Z,-5.80
2019-01-20T03:39:02.255Z,-5.80
2019-01-20T03:41:34.632Z,-5.80
2019-01-20T03:44:07.783Z,-5.80
2019-01-20T03:46:40.194Z,-5.90
2019-01-20T03:49:12.670Z,-5.90
2019-01-20T03:51:45.138Z,-5.90
2019-01-20T03:54:17.717Z,-5.90
2019-01-20T03:56:50.347Z,-5.90
2019-01-20T03:59:22.913Z,-6.00
2019-01-20T04:01:55.481Z,-6.00
2019-01-20T04:04:27.864Z,-6.00
2019-01-20T04:07:00.335Z,-6.00
2019-01-20T04:09:32.811Z,-6.00
2019-01-20T04:12:05.306Z,-6.00
2019-01-20T04:14:37.686Z,-6.00
2019-01-20T04:17:10.156Z,-6.10
2019-01-20T04:19:42.532Z,-6.10
2019-01-20T04:22:14.901Z,-6.10
2019-01-20T04:24:47.283Z,-6.10
2019-01-20T04:27:19.710Z,-6.20
2019-01-20T04:29:52.037Z,-6.20
2019-01-20T04:32:24.405Z,-6.20
2019-01-20T04:34:56.768Z,-6.20
2019-01-20T04:37:29.138Z,-6.20
2019-01-20T04:40:01.724Z,-6.20
2019-01-20T04:42:34.209Z,-6.20
2019-01-20T04:45:08.908Z,-6.20
2019-01-20T04:47:41.488Z,-6.20
2019-01-20T04:50:17.366Z,-6.20
2019-01-20T04:52:49.974Z,-6.20
2019-01-20T04:55:22.572Z,-6.30
2019-01-20T04:57:55.872Z,-6.30
2019-01-20T05:00:29.930Z,-6.30
2019-01-20T05:03:02.500Z,-6.30
2019-01-20T05:05:34.874Z,-6.30
2019-01-20T05:08:07.649Z,-6.30
2019-01-20T05:10:40.218Z,-6.20
2019-01-20T05:13:12.607Z,-6.30
2019-01-20T05:15:45.090Z,-6.30
2019-01-20T05:18:17.464Z,-6.30
2019-01-20T05:20:50.088Z,-6.30
2019-01-20T05:23:22.562Z,-6.30
2019-01-20T05:25:55.042Z,-6.40
2019-01-20T05:28:27.428Z,-6.40
2019-01-20T05:30:59.909Z,-6.40
2019-01-20T05:33:32.278Z,-6.40
2019-01-20T05:36:04.857Z,-6.40
2019-01-20T05:38:37.340Z,-6.40
2019-01-20T05:41:09.725Z,-6.40
2019-01-20T05:43:42.204Z,-6.50
2019-01-20T05:46:14.695Z,-6.50
2019-01-20T05:48:47.051Z,-6.50
2019-01-20T05:51:19.433Z,-6.60
2019-01-20T05:53:51.915Z,-6.60
2019-01-20T05:56:24.281Z,-6.60
2019-01-20T05:58:56.653Z,-6.60
2019-01-20T06:01:29.259Z,-6.60
2019-01-20T06:04:01.636Z,-6.60
2019-01-20T06:06:34.125Z,-6.50
2019-01-20T06:09:09.109Z,-6.50
2019-01-20T06:11:41.578Z,-6.50
2019-01-20T06:14:13.965Z,-6.50
2019-01-20T06:16:46.444Z,-6.50
2019-01-20T06:19:18.782Z,-6.50
2019-01-20T06:21:51.262Z,-6.40
2019-01-20T06:24:23.591Z,-6.40
2019-01-20T06:26:56.086Z,-6.40
2019-01-20T06:29:28.463Z,-6.40
2019-01-20T06:32:00.845Z,-6.40
2019-01-20T06:34:33.227Z,-6.40
2019-01-20T06:37:05.724Z,-6.40
2019-01-20T06:39:38.300Z,-6.40
2019-01-20T06:42:10.785Z,-6.40
2019-01-20T06:44:43.173Z,-6.50
2019-01-20T06:47:15.654Z,-6.50
2019-01-20T06:49:48.128Z,-6.50
2019-01-20T06:52:20.501Z,-6.40
2019-01-20T06:54:52.933Z,-6.20
2019-01-20T06:57:25.418Z,-6.10
2019-01-20T06:59:57.791Z,-6.00
2019-01-20T07:02:30.276Z,-6.00
2019-01-20T07:05:02.657Z,-5.90
2019-01-20T07:07:35.138Z,-5.70
2019-01-20T07:10:08.734Z,-5.50
2019-01-20T07:12:41.115Z,-5.30
2019-01-20T07:15:17.365Z,-5.20
2019-01-20T07:17:50.040Z,-5.10
2019-01-20T07:20:22.842Z,-5.00
2019-01-20T07:22:55.319Z,-4.70
2019-01-20T07:25:27.760Z,-4.40
2019-01-20T07:28:00.232Z,-4.20
2019-01-20T07:30:32.717Z,-4.00
2019-01-20T07:33:05.888Z,-3.90
2019-01-20T07:35:38.367Z,-4.00
2019-01-20T07:38:10.856Z,-4.10
2019-01-20T07:40:43.230Z,-3.50
2019-01-20T07:43:17.078Z,-2.20
2019-01-20T07:45:49.615Z,-1.30
2019-01-20T07:48:22.091Z,-1.30
2019-01-20T07:50:54.466Z,-1.30
2019-01-20T07:53:27.043Z,-1.20
2019-01-20T07:55:59.622Z,-1.70
2019-01-20T07:58:32.198Z,-2.20
2019-01-20T08:01:04.737Z,-2.70
2019-01-20T08:03:37.323Z,-3.10
2019-01-20T08:06:09.818Z,-3.20
2019-01-20T08:08:42.305Z,-3.40
2019-01-20T08:11:14.682Z,-3.10
2019-01-20T08:13:47.079Z,-2.80
2019-01-20T08:16:19.749Z,-2.60
2019-01-20T08:18:52.140Z,-2.30
2019-01-20T08:21:24.513Z,-1.60
2019-01-20T08:23:56.991Z,-1.40
2019-01-20T08:26:29.463Z,-0.60
2019-01-20T08:29:01.748Z,0.80
2019-01-20T08:31:34.089Z,2.90
2019-01-20T08:34:06.514Z,4.30
2019-01-20T08:36:38.827Z,5.50
2019-01-20T08:39:13.972Z,7.00
2019-01-20T08:41:46.808Z,8.40
2019-01-20T08:44:19.282Z,9.50
2019-01-20T08:47:19.117Z,10.50
2019-01-20T08:49:55.391Z,11.00
2019-01-20T08:52:34.385Z,11.30
2019-01-20T08:55:12.249Z,10.50
2019-01-20T08:57:47.456Z,9.00
2019-01-20T09:00:20.508Z,7.50
2019-01-20T09:02:52.746Z,6.30
2019-01-20T09:05:25.184Z,5.70
2019-01-20T09:07:57.538Z,5.10
2019-01-20T09:10:30.654Z,4.60
2019-01-20T09:13:07.904Z,4.00
2019-01-20T09:15:40.764Z,3.80
2019-01-20T09:18:13.350Z,3.70
2019-01-20T09:20:45.794Z,3.40
2019-01-20T09:23:18.239Z,3.10
2019-01-20T09:25:50.706Z,2.90
2019-01-20T09:28:29.772Z,2.20
2019-01-20T09:31:02.460Z,1.40
2019-01-20T09:33:34.793Z,0.80
2019-01-20T09:36:07.633Z,0.20
2019-01-20T09:38:40.180Z,-0.20
2019-01-20T09:41:12.673Z,-0.60
2019-01-20T09:43:47.404Z,-0.90
2019-01-20T09:46:19.047Z,-1.00
2019-01-20T09:48:51.427Z,-1.20
2019-01-20T09:51:23.826Z,-1.30
2019-01-20T09:53:56.498Z,-1.40
2019-01-20T09:56:28.913Z,-1.30
2019-01-20T09:59:01.494Z,-1.30
2019-01-20T10:01:34.128Z,-1.30
2019-01-20T10:04:06.808Z,-1.20
2019-01-20T10:06:39.389Z,-1.20
2019-01-20T10:09:11.992Z,-1.20
2019-01-20T10:11:44.386Z,-1.10
2019-01-20T10:14:17.016Z,-1.10
2019-01-20T10:16:49.453Z,-1.10
2019-01-20T10:19:21.989Z,-1.10
2019-01-20T10:21:54.472Z,-1.10
2019-01-20T10:24:26.933Z,-1.10
2019-01-20T10:26:59.427Z,-1.00
2019-01-20T10:29:31.831Z,-0.90
2019-01-20T10:32:04.317Z,-0.80
2019-01-20T10:34:36.982Z,-0.80
2019-01-20T10:37:09.663Z,-0.80
2019-01-20T10:39:42.137Z,-0.70
2019-01-20T10:42:14.723Z,-0.60
2019-01-20T10:44:47.204Z,-0.40
2019-01-20T10:47:19.586Z,-0.30
2019-01-20T10:49:51.954Z,-0.30
2019-01-20T10:52:24.827Z,-0.10
2019-01-20T10:54:57.341Z,0.00
2019-01-20T10:57:30.192Z,0.00
2019-01-20T11:00:02.753Z,0.10
2019-01-20T11:02:35.170Z,0.30
2019-01-20T11:05:08.161Z,0.20
2019-01-20T11:07:40.485Z,0.30
2019-01-20T11:10:13.230Z,0.40
2019-01-20T11:12:45.676Z,0.50
2019-01-20T11:15:18.424Z,0.70
2019-01-20T11:17:50.829Z,0.90
2019-01-20T11:20:23.610Z,1.00
2019-01-20T11:22:55.929Z,1.10
2019-01-20T11:25:32.278Z,1.20
2019-01-20T11:28:04.972Z,1.20
2019-01-20T11:30:37.706Z,1.40
2019-01-20T11:33:10.222Z,1.50
2019-01-20T11:35:42.535Z,1.50
2019-01-20T11:38:14.755Z,1.60
2019-01-20T11:40:46.963Z,1.70
2019-01-20T11:43:19.175Z,1.70
2019-01-20T11:45:51.821Z,1.80
2019-01-20T11:48:24.359Z,1.80
2019-01-20T11:50:56.563Z,1.90
2019-01-20T11:53:28.874Z,2.10
2019-01-20T11:56:01.081Z,2.30
2019-01-20T11:58:33.294Z,2.40
2019-01-20T12:01:05.711Z,2.50
2019-01-20T12:03:38.120Z,2.50
2019-01-20T12:06:10.533Z,2.50
2019-01-20T12:08:42.849Z,2.50
2019-01-20T12:11:15.285Z,2.50
2019-01-20T12:13:47.603Z,2.70
2019-01-20T12:16:19.936Z,3.30
2019-01-20T12:18:52.145Z,4.30
2019-01-20T12:21:24.465Z,5.00
2019-01-20T12:23:56.964Z,5.30
2019-01-20T12:26:29.370Z,5.20
2019-01-20T12:29:01.584Z,5.40
2019-01-20T12:31:33.793Z,5.70
2019-01-20T12:34:06.306Z,5.30
2019-01-20T12:36:38.635Z,4.70
2019-01-20T12:39:11.244Z,4.30
2019-01-20T12:41:43.507Z,4.40
2019-01-20T12:44:15.718Z,5.10
2019-01-20T12:46:48.117Z,6.00
2019-01-20T12:49:20.591Z,7.40
2019-01-20T12:51:52.903Z,8.40
2019-01-20T12:54:25.518Z,9.20
2019-01-20T12:56:58.084Z,9.70
2019-01-20T12:59:30.693Z,10.40
2019-01-20T13:02:03.015Z,10.80
2019-01-20T13:04:35.491Z,10.70
2019-01-20T13:07:08.011Z,9.60
2019-01-20T13:09:40.649Z,8.60
2019-01-20T13:12:13.076Z,8.20
2019-01-20T13:14:45.441Z,8.50
2019-01-20T13:17:17.959Z,8.70
2019-01-20T13:19:50.432Z,9.10
2019-01-20T13:22:22.857Z,9.50
2019-01-20T13:24:55.330Z,9.80
2019-01-20T13:27:27.755Z,10.10
2019-01-20T13:30:00.287Z,10.40
2019-01-20T13:32:32.819Z,10.60
2019-01-20T13:35:05.871Z,10.60
2019-01-20T13:37:39.478Z,10.20
2019-01-20T13:40:16.966Z,9.60
2019-01-20T13:42:49.208Z,9.10
2019-01-20T13:45:21.756Z,8.80
2019-01-20T13:47:54.120Z,8.80
2019-01-20T13:50:26.702Z,8.70
2019-01-20T13:52:59.257Z,8.70
2019-01-20T13:55:31.731Z,8.80
2019-01-20T13:58:04.096Z,8.70
2019-01-20T14:00:36.718Z,8.90
2019-01-20T14:03:09.280Z,8.80
2019-01-20T14:05:41.588Z,8.60
2019-01-20T14:08:13.901Z,8.40
2019-01-20T14:10:46.316Z,8.10
2019-01-20T14:13:18.529Z,7.20
2019-01-20T14:15:50.945Z,6.00
2019-01-20T14:18:23.151Z,4.90
2019-01-20T14:20:55.365Z,4.00
2019-01-20T14:23:27.686Z,3.20
2019-01-20T14:25:59.899Z,2.60
2019-01-20T14:28:32.110Z,2.10
2019-01-20T14:31:04.517Z,1.70
2019-01-20T14:33:36.940Z,1.50
2019-01-20T14:36:09.454Z,1.20
2019-01-20T14:38:41.654Z,1.00
2019-01-20T14:41:14.069Z,0.80
2019-01-20T14:43:46.390Z,0.60
2019-01-20T14:46:18.607Z,0.40
2019-01-20T14:48:50.952Z,0.20
2019-01-20T14:51:23.378Z,0.00
2019-01-20T14:53:56.047Z,-0.10
2019-01-20T14:56:28.566Z,-0.20
2019-01-20T14:59:01.072Z,-0.20
2019-01-20T15:01:33.649Z,-0.20
2019-01-20T15:04:06.438Z,-0.30
2019-01-20T15:06:38.815Z,-0.40
2019-01-20T15:09:11.610Z,-0.40
2019-01-20T15:11:43.991Z,-0.40
2019-01-20T15:14:16.469Z,-0.50
2019-01-20T15:16:48.845Z,-0.60
2019-01-20T15:19:21.889Z,-0.70
2019-01-20T15:21:54.415Z,-0.80
2019-01-20T15:24:31.218Z,-1.00
2019-01-20T15:27:00.939Z,-1.10
2019-01-20T15:29:33.620Z,-1.20
2019-01-20T15:32:06.505Z,-1.30
2019-01-20T15:34:38.999Z,-1.40
2019-01-20T15:37:11.488Z,-1.50
2019-01-20T15:39:43.993Z,-1.60
2019-01-20T15:42:16.378Z,-1.70
2019-01-20T15:44:48.755Z,-1.80
2019-01-20T15:47:21.239Z,-1.80
2019-01-20T15:49:53.824Z,-1.80
2019-01-20T15:52:26.201Z,-1.90
2019-01-20T15:54:58.779Z,-1.90
2019-01-20T15:57:31.364Z,-2.00
2019-01-20T16:00:04.192Z,-1.90
2019-01-20T16:02:36.777Z,-1.90
2019-01-20T16:05:09.606Z,-1.90
2019-01-20T16:07:42.198Z,-1.90
2019-01-20T16:10:16.219Z,-1.90
2019-01-20T16:12:49.384Z,-2.00
2019-01-20T16:15:25.268Z,-2.00
2019-01-20T16:17:58.725Z,-2.00
2019-01-20T16:20:33.174Z,-2.00
2019-01-20T16:23:08.181Z,-2.00
2019-01-20T16:25:41.184Z,-2.00
2019-01-20T16:28:14.369Z,-1.90
2019-01-20T16:30:46.954Z,-1.90
2019-01-20T16:33:24.814Z,-1.90
2019-01-20T16:35:53.632Z,-2.00
2019-01-20T16:38:26.105Z,-2.00
2019-01-20T16:40:58.587Z,-2.00
2019-01-20T16:43:30.972Z,-2.00
2019-01-20T16:46:03.450Z,-2.00
2019-01-20T16:48:35.824Z,-2.10
2019-01-20T16:51:08.312Z,-2.00
2019-01-20T16:53:40.702Z,-2.00
2019-01-20T16:56:13.413Z,-1.90
2019-01-20T16:58:51.347Z,-1.90
2019-01-20T17:01:21.507Z,-1.90
2019-01-20T17:03:54.083Z,-1.90
2019-01-20T17:06:26.562Z,-1.80
2019-01-20T17:08:59.037Z,-1.90
2019-01-20T17:11:31.523Z,-1.90
2019-01-20T17:14:04.108Z,-1.90
2019-01-20T17:16:36.586Z,-1.90
2019-01-20T17:19:09.170Z,-1.90
2019-01-20T17:21:41.551Z,-1.80
2019-01-20T17:24:14.031Z,-1.80
2019-01-20T17:26:46.608Z,-1.80
2019-01-20T17:29:18.984Z,-1.80
2019-01-20T17:31:51.361Z,-1.80
2019-01-20T17:34:23.847Z,-1.80
2019-01-20T17:36:56.416Z,-1.80
2019-01-20T17:39:28.895Z,-1.80
2019-01-20T17:42:01.286Z,-1.80
2019-01-20T17:44:33.965Z,-1.80
2019-01-20T17:47:06.543Z,-1.80
2019-01-20T17:49:38.927Z,-1.80
2019-01-20T17:52:11.544Z,-1.70
2019-01-20T17:54:43.922Z,-1.70
2019-01-20T17:57:16.298Z,-1.60
2019-01-20T17:59:48.720Z,-1.60
2019-01-20T18:02:21.095Z,-1.60
2019-01-20T18:04:53.770Z,-1.60
2019-01-20T18:07:26.247Z,-1.50
2019-01-20T18:09:58.723Z,-1.50
2019-01-20T18:12:31.048Z,-1.60
2019-01-20T18:15:03.637Z,-1.60
2019-01-20T18:17:35.974Z,-1.60
2019-01-20T18:20:12.442Z,-1.60
2019-01-20T18:22:45.300Z,-1.60
2019-01-20T18:25:18.994Z,-1.60
2019-01-20T18:27:51.681Z,-1.70
2019-01-20T18:30:26.549Z,-1.70
2019-01-20T18:32:59.219Z,-1.70
2019-01-20T18:35:31.907Z,-1.70
2019-01-20T18:38:04.579Z,-1.80
2019-01-20T18:40:55.230Z,-1.80
2019-01-20T18:44:06.658Z,-1.80
2019-01-20T18:46:39.266Z,-1.80
2019-01-20T18:49:11.746Z,-1.80
2019-01-20T18:51:44.324Z,-1.80
2019-01-20T18:54:16.855Z,-1.80
2019-01-20T18:56:49.217Z,-1.80
2019-01-20T18:59:21.647Z,-1.80
2019-01-20T19:01:54.032Z,-1.80
2019-01-20T19:04:26.463Z,-1.80
2019-01-20T19:06:59.049Z,-1.70
2019-01-20T19:09:31.710Z,-1.70
2019-01-20T19:12:04.580Z,-1.70
2019-01-20T19:14:37.027Z,-1.70
2019-01-20T19:17:09.525Z,-1.70
2019-01-20T19:19:41.946Z,-1.70
2019-01-20T19:22:14.993Z,-1.70
2019-01-20T19:24:47.454Z,-1.60
2019-01-20T19:27:19.941Z,-1.60
2019-01-20T19:29:52.269Z,-1.60
2019-01-20T19:32:24.743Z,-1.60
2019-01-20T19:34:57.271Z,-1.50
2019-01-20T19:37:29.744Z,-1.50
2019-01-20T19:40:02.196Z,-1.50
2019-01-20T19:42:34.781Z,-1.40
2019-01-20T19:45:10.478Z,-1.40
2019-01-20T19:47:43.074Z,-1.40
2019-01-20T19:50:16.303Z,-1.40
2019-01-20T19:52:48.888Z,-1.30
2019-01-20T19:55:33.954Z,-1.30
2019-01-20T19:58:06.848Z,-1.20
2019-01-20T20:00:39.472Z,-1.20
2019-01-20T20:03:15.063Z,-1.20
2019-01-20T20:05:47.749Z,-1.20
2019-01-20T20:08:20.395Z,-1.20
2019-01-20T20:10:52.974Z,-1.20
2019-01-20T20:13:25.457Z,-1.30
2019-01-20T20:15:57.787Z,-1.30
2019-01-20T20:18:30.162Z,-1.40
2019-01-20T20:21:02.486Z,-1.40
2019-01-20T20:23:34.969Z,-1.40
2019-01-20T20:26:07.655Z,-1.40
2019-01-20T20:28:40.136Z,-1.40
2019-01-20T20:31:12.614Z,-1.40
2019-01-20T20:33:45.086Z,-1.40
2019-01-20T20:36:17.563Z,-1.40
2019-01-20T20:38:50.039Z,-1.40
2019-01-20T20:41:22.517Z,-1.40
2019-01-20T20:43:54.896Z,-1.40
2019-01-20T20:46:30.706Z,-1.40
2019-01-20T20:49:01.492Z,-1.40
2019-01-20T20:51:33.965Z,-1.30
2019-01-20T20:54:06.641Z,-1.30
2019-01-20T20:56:39.180Z,-1.20
2019-01-20T20:59:11.699Z,-1.20
2019-01-20T21:01:44.271Z,-1.20
2019-01-20T21:04:16.747Z,-1.10
2019-01-20T21:06:49.217Z,-1.10
2019-01-20T21:09:21.688Z,-1.10
2019-01-20T21:11:54.074Z,-1.10
2019-01-20T21:14:26.924Z,-1.10
2019-01-20T21:16:59.530Z,-1.10
2019-01-20T21:19:31.893Z,-1.10
2019-01-20T21:22:04.274Z,-1.10
2019-01-20T21:24:36.656Z,-1.10
2019-01-20T21:27:09.336Z,-1.20
2019-01-20T21:29:41.720Z,-1.20
2019-01-20T21:32:14.194Z,-1.20
2019-01-20T21:34:46.570Z,-1.20
2019-01-20T21:37:19.055Z,-1.20
2019-01-20T21:39:51.538Z,-1.20
2019-01-20T21:42:23.913Z,-1.10
2019-01-20T21:44:56.306Z,-1.10
2019-01-20T21:47:28.691Z,-1.10
2019-01-20T21:50:01.067Z,-1.10
2019-01-20T21:52:33.450Z,-1.10
2019-01-20T21:55:06.280Z,-1.10
2019-01-20T21:57:38.910Z,-1.20
2019-01-20T22:00:15.695Z,-1.20
2019-01-20T22:02:48.378Z,-1.20
2019-01-20T22:05:20.956Z,-1.20
2019-01-20T22:07:53.529Z,-1.20
2019-01-20T22:10:26.439Z,-1.20
2019-01-20T22:12:58.911Z,-1.20
2019-01-20T22:15:31.494Z,-1.20
2019-01-20T22:18:03.967Z,-1.20
2019-01-20T22:20:36.543Z,-1.20
2019-01-20T22:23:09.218Z,-1.20
2019-01-20T22:25:41.708Z,-1.10
2019-01-20T22:28:14.089Z,-1.10
2019-01-20T22:30:46.466Z,-1.10
2019-01-20T22:33:18.859Z,-1.20
2019-01-20T22:35:51.240Z,-1.20
2019-01-20T22:38:23.725Z,-1.20
2019-01-20T22:40:56.102Z,-1.30
2019-01-20T22:43:28.478Z,-1.30
2019-01-20T22:46:00.951Z,-1.30
2019-01-20T22:48:33.325Z,-1.20
2019-01-20T22:51:05.817Z,-1.20
2019-01-20T22:53:38.301Z,-1.20
2019-01-20T22:56:10.783Z,-1.20
2019-01-20T22:58:43.167Z,-1.20
2019-01-20T23:01:23.661Z,-1.20
2019-01-20T23:03:56.045Z,-1.30
2019-01-20T23:06:28.652Z,-1.30
2019-01-20T23:09:06.541Z,-1.30
2019-01-20T23:11:35.221Z,-1.20
2019-01-20T23:14:08.084Z,-1.20
2019-01-20T23:16:40.565Z,-1.20
2019-01-20T23:19:13.147Z,-1.20
2019-01-20T23:21:45.536Z,-1.20
2019-01-20T23:24:17.908Z,-1.20
2019-01-20T23:26:50.289Z,-1.20
2019-01-20T23:29:22.670Z,-1.20
2019-01-20T23:31:55.143Z,-1.20
2019-01-20T23:34:27.620Z,-1.30
2019-01-20T23:36:59.999Z,-1.40
2019-01-20T23:39:32.369Z,-1.40
2019-01-20T23:42:04.851Z,-1.50
2019-01-20T23:44:37.327Z,-1.60
2019-01-20T23:47:15.123Z,-1.60
2019-01-20T23:49:43.905Z,-1.70
2019-01-20T23:52:16.389Z,-1.70
2019-01-20T23:54:48.767Z,-1.80
2019-01-20T23:57:21.255Z,-1.80
2019-01-20T23:59:53.732Z,-1.80
